createdAt,value
2022-12-27T00:01:31.120Z,21.48
2022-12-27T00:04:02.432Z,30.20
2022-12-27T00:06:33.592Z,30.23
2022-12-27T00:09:05.380Z,26.38
2022-12-27T00:11:38.596Z,27.50
2022-12-27T00:14:10.953Z,26.85
2022-12-27T00:16:41.901Z,28.08
2022-12-27T00:19:12.487Z,25.30
2022-12-27T00:21:43.220Z,18.80
2022-12-27T00:24:14.224Z,16.90
2022-12-27T00:26:47.505Z,15.73
2022-12-27T00:29:18.051Z,9.90
2022-12-27T00:31:48.749Z,10.63
2022-12-27T00:34:19.411Z,12.40
2022-12-27T00:36:49.964Z,13.15
2022-12-27T00:39:20.642Z,18.88
2022-12-27T00:41:53.931Z,11.23
2022-12-27T00:44:24.482Z,22.05
2022-12-27T00:46:55.075Z,22.00
2022-12-27T00:49:25.625Z,21.23
2022-12-27T00:51:56.217Z,19.08
2022-12-27T00:54:26.802Z,20.65
2022-12-27T00:57:00.021Z,13.95
2022-12-27T00:59:30.522Z,14.27
2022-12-27T01:02:01.247Z,15.10
2022-12-27T01:04:34.052Z,21.73
2022-12-27T01:07:04.755Z,13.02
2022-12-27T01:09:35.575Z,11.60
2022-12-27T01:12:09.113Z,12.68
2022-12-27T01:14:39.907Z,19.98
2022-12-27T01:17:10.472Z,15.30
2022-12-27T01:19:41.653Z,10.27
2022-12-27T01:22:12.368Z,8.45
2022-12-27T01:24:42.975Z,7.82
2022-12-27T01:27:16.407Z,9.73
2022-12-27T01:29:47.004Z,10.95
2022-12-27T01:32:17.655Z,10.15
2022-12-27T01:34:48.404Z,9.70
2022-12-27T01:37:22.483Z,9.13
2022-12-27T01:39:53.023Z,7.22
2022-12-27T01:42:38.506Z,7.30
2022-12-27T01:45:18.231Z,5.82
2022-12-27T01:48:04.747Z,8.80
2022-12-27T01:50:38.502Z,7.68
2022-12-27T01:53:15.738Z,8.48
2022-12-27T01:55:49.804Z,8.38
2022-12-27T01:58:27.777Z,13.02
2022-12-27T02:00:59.940Z,16.20
2022-12-27T02:03:35.553Z,16.52
2022-12-27T02:06:08.805Z,17.27
2022-12-27T02:08:49.308Z,18.33
2022-12-27T02:11:43.262Z,16.65
2022-12-27T02:14:19.528Z,17.67
2022-12-27T02:17:16.859Z,9.98
2022-12-27T02:20:00.525Z,10.90
2022-12-27T02:23:23.863Z,6.60
2022-12-27T02:26:31.291Z,9.00
2022-12-27T02:29:22.843Z,6.00
2022-12-27T02:31:59.559Z,7.95
2022-12-27T02:34:34.790Z,13.57
2022-12-27T02:37:10.434Z,9.35
2022-12-27T02:39:46.232Z,7.50
2022-12-27T02:42:30.817Z,12.90
2022-12-27T02:45:16.933Z,6.53
2022-12-27T02:48:02.826Z,8.05
2022-12-27T02:51:00.346Z,13.80
2022-12-27T02:53:42.478Z,16.13
2022-12-27T02:56:38.555Z,17.13
2022-12-27T02:59:26.350Z,14.18
2022-12-27T03:02:23.289Z,8.63
2022-12-27T03:05:14.218Z,10.82
2022-12-27T03:07:54.461Z,10.68
2022-12-27T03:10:47.178Z,7.40
2022-12-27T03:13:48.187Z,6.55
2022-12-27T03:16:25.570Z,5.68
2022-12-27T03:19:06.363Z,6.85
2022-12-27T03:21:52.623Z,7.68
2022-12-27T03:24:38.812Z,6.35
2022-12-27T03:27:18.470Z,5.35
2022-12-27T03:30:05.632Z,5.78
2022-12-27T03:32:53.799Z,6.05
2022-12-27T03:35:30.128Z,9.55
2022-12-27T03:38:04.080Z,6.45
2022-12-27T03:41:03.210Z,5.80
2022-12-27T03:43:32.329Z,9.70
2022-12-27T03:46:25.219Z,10.80
2022-12-27T03:49:09.285Z,6.65
2022-12-27T03:51:47.851Z,5.13
2022-12-27T03:54:26.759Z,4.88
2022-12-27T03:56:59.320Z,5.13
2022-12-27T03:59:30.657Z,5.07
2022-12-27T04:02:02.369Z,7.47
2022-12-27T04:04:33.802Z,11.88
2022-12-27T04:07:07.465Z,11.82
2022-12-27T04:09:50.730Z,10.85
2022-12-27T04:12:33.662Z,8.55
2022-12-27T04:15:16.613Z,6.03
2022-12-27T04:18:01.452Z,8.50
2022-12-27T04:20:44.287Z,10.70
2022-12-27T04:23:29.944Z,11.45
2022-12-27T04:26:12.990Z,9.60
2022-12-27T04:28:57.300Z,11.10
2022-12-27T04:31:40.440Z,9.55
2022-12-27T04:34:23.354Z,10.15
2022-12-27T04:36:53.910Z,8.00
2022-12-27T04:39:27.219Z,6.30
2022-12-27T04:42:10.120Z,5.88
2022-12-27T04:44:52.974Z,5.95
2022-12-27T04:47:37.951Z,6.20
2022-12-27T04:50:28.614Z,6.00
2022-12-27T04:53:12.294Z,6.50
2022-12-27T04:55:45.376Z,5.65
2022-12-27T04:58:15.848Z,5.90
2022-12-27T05:00:58.768Z,12.40
2022-12-27T05:03:30.351Z,12.98
2022-12-27T05:06:00.972Z,10.35
2022-12-27T05:08:45.524Z,9.63
2022-12-27T05:11:31.253Z,7.13
2022-12-27T05:14:05.064Z,7.78
2022-12-27T05:16:38.921Z,8.35
2022-12-27T05:19:11.240Z,7.90
2022-12-27T05:22:03.597Z,10.38
2022-12-27T05:24:46.732Z,8.30
2022-12-27T05:27:20.466Z,12.13
2022-12-27T05:29:51.024Z,9.13
2022-12-27T05:32:21.604Z,9.73
2022-12-27T05:34:52.286Z,6.85
2022-12-27T05:37:23.260Z,13.07
2022-12-27T05:39:53.867Z,13.00
2022-12-27T05:42:27.029Z,12.40
2022-12-27T05:44:57.475Z,14.15
2022-12-27T05:47:28.295Z,12.30
2022-12-27T05:49:58.895Z,12.20
2022-12-27T05:52:29.899Z,12.50
2022-12-27T05:55:00.372Z,11.75
2022-12-27T05:57:33.706Z,11.63
2022-12-27T06:00:04.303Z,14.57
2022-12-27T06:02:43.167Z,17.33
2022-12-27T06:05:14.092Z,11.80
2022-12-27T06:07:44.798Z,17.17
2022-12-27T06:10:15.380Z,17.15
2022-12-27T06:12:48.802Z,15.10
2022-12-27T06:15:19.534Z,20.45
2022-12-27T06:17:50.172Z,21.40
2022-12-27T06:20:21.824Z,20.90
2022-12-27T06:22:52.463Z,21.45
2022-12-27T06:25:23.261Z,20.45
2022-12-27T06:27:56.677Z,12.98
2022-12-27T06:30:30.417Z,22.55
2022-12-27T06:33:05.210Z,23.50
2022-12-27T06:35:36.136Z,26.98
2022-12-27T06:38:07.063Z,16.02
2022-12-27T06:40:37.797Z,15.65
2022-12-27T06:43:11.375Z,14.60
2022-12-27T06:45:42.530Z,17.60
2022-12-27T06:48:13.239Z,16.55
2022-12-27T06:50:43.859Z,15.23
2022-12-27T06:53:14.696Z,14.43
2022-12-27T06:55:45.285Z,42.75
2022-12-27T06:58:18.922Z,30.83
2022-12-27T07:00:49.666Z,23.55
2022-12-27T07:03:20.239Z,40.50
2022-12-27T07:05:50.842Z,43.28
2022-12-27T07:08:21.380Z,38.17
2022-12-27T07:10:52.060Z,40.13
2022-12-27T07:13:25.250Z,36.53
2022-12-27T07:15:55.810Z,37.30
2022-12-27T07:18:26.985Z,39.05
2022-12-27T07:20:57.601Z,46.30
2022-12-27T07:23:28.221Z,52.88
2022-12-27T07:25:58.979Z,63.15
2022-12-27T07:28:32.481Z,61.67
2022-12-27T07:31:03.293Z,69.30
2022-12-27T07:33:34.090Z,64.30
2022-12-27T07:36:05.567Z,56.80
2022-12-27T07:38:36.265Z,52.50
2022-12-27T07:41:07.429Z,43.72
2022-12-27T07:43:40.738Z,40.33
2022-12-27T07:46:13.263Z,45.60
2022-12-27T07:48:44.122Z,39.95
2022-12-27T07:51:15.290Z,42.50
2022-12-27T07:53:45.959Z,33.53
2022-12-27T07:56:25.547Z,35.35
2022-12-27T07:59:01.395Z,33.13
2022-12-27T08:01:53.747Z,43.67
2022-12-27T08:04:24.306Z,43.67
2022-12-27T08:06:54.934Z,41.45
2022-12-27T08:09:31.939Z,38.40
2022-12-27T08:12:02.653Z,41.88
2022-12-27T08:14:35.858Z,43.67
2022-12-27T08:17:08.909Z,44.40
2022-12-27T08:19:39.746Z,44.95
2022-12-27T08:22:11.130Z,46.92
2022-12-27T08:24:41.833Z,46.78
2022-12-27T08:27:12.748Z,48.42
2022-12-27T08:29:48.356Z,50.13
2022-12-27T08:32:19.453Z,50.80
2022-12-27T08:34:50.121Z,55.70
2022-12-27T08:37:20.827Z,58.50
2022-12-27T08:39:51.335Z,58.83
2022-12-27T08:42:21.998Z,60.88
2022-12-27T08:44:55.208Z,53.85
2022-12-27T08:47:26.400Z,51.80
2022-12-27T08:49:56.936Z,55.78
2022-12-27T08:52:27.685Z,67.80
2022-12-27T08:54:58.304Z,67.53
2022-12-27T08:57:29.044Z,61.72
2022-12-27T09:00:02.185Z,62.40
2022-12-27T09:05:06.152Z,34.55
2022-12-27T09:07:37.619Z,35.20
2022-12-27T09:10:09.494Z,38.03
2022-12-27T09:12:40.110Z,36.45
2022-12-27T09:15:14.452Z,37.58
2022-12-27T09:17:45.071Z,35.38
2022-12-27T09:20:16.084Z,40.45
2022-12-27T09:22:46.967Z,37.83
2022-12-27T09:25:17.575Z,37.00
2022-12-27T09:27:48.296Z,43.20
2022-12-27T09:30:21.618Z,39.25
2022-12-27T09:32:52.423Z,35.85
2022-12-27T09:35:22.971Z,40.25
2022-12-27T09:37:53.568Z,32.75
2022-12-27T09:40:24.749Z,35.33
2022-12-27T09:43:16.255Z,31.55
2022-12-27T09:45:57.152Z,30.63
2022-12-27T09:48:33.792Z,29.00
2022-12-27T09:51:10.010Z,28.88
2022-12-27T09:53:48.254Z,37.80
2022-12-27T09:56:40.560Z,36.63
2022-12-27T09:59:25.201Z,31.52
2022-12-27T10:01:58.434Z,32.30
2022-12-27T10:04:45.540Z,32.22
2022-12-27T10:07:28.545Z,30.13
2022-12-27T10:10:06.138Z,31.50
2022-12-27T10:13:03.444Z,30.58
2022-12-27T10:15:48.544Z,34.97
2022-12-27T10:18:40.010Z,25.40
2022-12-27T10:21:19.989Z,25.58
2022-12-27T10:23:57.310Z,30.60
2022-12-27T10:26:28.184Z,28.20
2022-12-27T10:29:02.365Z,31.20
2022-12-27T10:31:34.828Z,21.98
2022-12-27T10:34:10.787Z,27.80
2022-12-27T10:36:43.113Z,24.38
2022-12-27T10:39:21.198Z,20.85
2022-12-27T10:42:03.160Z,25.38
2022-12-27T10:44:33.668Z,24.30
2022-12-27T10:47:05.041Z,24.52
2022-12-27T10:49:39.413Z,21.70
2022-12-27T10:52:12.766Z,20.40
2022-12-27T10:54:54.408Z,14.98
2022-12-27T10:57:30.993Z,8.85
2022-12-27T11:00:20.434Z,14.88
2022-12-27T11:02:54.731Z,8.25
2022-12-27T11:05:29.998Z,9.48
2022-12-27T11:08:01.424Z,6.45
2022-12-27T11:10:33.677Z,6.72
2022-12-27T11:13:05.786Z,6.30
2022-12-27T11:15:39.299Z,6.45
2022-12-27T11:18:15.151Z,5.22
2022-12-27T11:20:52.448Z,4.82
2022-12-27T11:23:24.599Z,3.10
2022-12-27T11:25:58.102Z,3.83
2022-12-27T11:28:35.487Z,2.97
2022-12-27T11:31:10.073Z,3.25
2022-12-27T11:33:43.827Z,2.65
2022-12-27T11:36:19.106Z,2.65
2022-12-27T11:38:53.457Z,2.45
2022-12-27T11:41:32.360Z,2.63
2022-12-27T11:44:07.348Z,2.97
2022-12-27T11:46:42.649Z,3.20
2022-12-27T11:52:19.575Z,2.10
2022-12-27T11:55:25.925Z,1.90
2022-12-27T11:58:18.477Z,3.10
2022-12-27T12:01:03.589Z,2.58
2022-12-27T12:03:53.961Z,2.38
2022-12-27T12:06:34.848Z,2.10
2022-12-27T12:09:24.192Z,2.45
2022-12-27T12:12:18.898Z,2.90
2022-12-27T12:15:18.128Z,2.08
2022-12-27T12:18:10.288Z,2.20
2022-12-27T12:21:00.271Z,1.90
2022-12-27T12:23:49.578Z,2.60
2022-12-27T12:26:24.373Z,2.90
2022-12-27T12:29:28.605Z,2.45
2022-12-27T12:32:34.564Z,2.40
2022-12-27T12:35:25.339Z,2.70
2022-12-27T12:38:05.888Z,2.75
2022-12-27T12:41:00.666Z,2.90
2022-12-27T12:43:53.675Z,2.47
2022-12-27T12:46:32.445Z,4.03
2022-12-27T12:49:29.562Z,3.45
2022-12-27T12:52:33.910Z,2.70
2022-12-27T12:55:38.155Z,2.80
2022-12-27T12:58:23.866Z,3.20
2022-12-27T13:01:23.857Z,3.00
2022-12-27T13:04:08.549Z,3.03
2022-12-27T13:07:04.083Z,3.25
2022-12-27T13:09:52.986Z,3.22
2022-12-27T13:12:31.768Z,4.10
2022-12-27T13:15:18.411Z,4.18
2022-12-27T13:18:05.683Z,3.45
2022-12-27T13:21:00.446Z,3.92
2022-12-27T13:23:43.843Z,3.63
2022-12-27T13:26:25.378Z,2.42
2022-12-27T13:29:11.154Z,2.95
2022-12-27T13:31:51.941Z,3.25
2022-12-27T13:34:37.194Z,2.80
2022-12-27T13:37:24.843Z,2.63
2022-12-27T13:40:11.204Z,2.70
2022-12-27T13:43:12.476Z,2.15
2022-12-27T13:46:02.155Z,3.40
2022-12-27T13:48:51.215Z,2.72
2022-12-27T13:51:44.426Z,2.95
2022-12-27T13:54:45.317Z,3.13
2022-12-27T13:57:29.153Z,3.72
2022-12-27T14:00:12.329Z,2.80
2022-12-27T14:03:10.387Z,2.92
2022-12-27T14:06:11.039Z,2.35
2022-12-27T14:09:03.620Z,2.90
2022-12-27T14:11:46.416Z,2.78
2022-12-27T14:14:21.372Z,3.33
2022-12-27T14:17:06.035Z,3.28
2022-12-27T14:20:00.674Z,2.40
2022-12-27T14:22:48.495Z,3.17
2022-12-27T14:26:07.553Z,3.25
2022-12-27T14:29:13.378Z,3.38
2022-12-27T14:32:25.379Z,3.80
2022-12-27T14:35:26.274Z,4.25
2022-12-27T14:38:25.825Z,4.88
2022-12-27T14:41:30.852Z,4.00
2022-12-27T14:44:35.897Z,4.47
2022-12-27T14:47:45.399Z,4.30
2022-12-27T14:50:38.863Z,4.47
2022-12-27T14:53:38.332Z,5.30
2022-12-27T14:56:23.852Z,6.00
2022-12-27T14:59:18.245Z,35.55
2022-12-27T15:02:05.068Z,14.40
2022-12-27T15:05:00.665Z,13.82
2022-12-27T15:07:45.593Z,16.07
2022-12-27T15:10:30.127Z,12.43
2022-12-27T15:13:16.238Z,11.50
2022-12-27T15:16:00.338Z,14.82
2022-12-27T15:18:50.005Z,10.73
2022-12-27T15:21:29.872Z,17.90
2022-12-27T15:24:10.235Z,11.13
2022-12-27T15:26:49.922Z,7.88
2022-12-27T15:29:30.007Z,9.50
2022-12-27T15:32:19.954Z,7.65
2022-12-27T15:35:04.361Z,4.70
2022-12-27T15:38:10.476Z,5.80
2022-12-27T15:40:58.644Z,14.20
2022-12-27T15:44:04.816Z,9.98
2022-12-27T15:47:09.099Z,6.35
2022-12-27T15:50:05.991Z,6.05
2022-12-27T15:52:53.286Z,4.50
2022-12-27T15:55:39.172Z,4.82
2022-12-27T15:58:18.191Z,4.65
2022-12-27T16:01:09.540Z,34.08
2022-12-27T16:03:41.748Z,4.30
2022-12-27T16:06:52.130Z,2.70
2022-12-27T16:09:38.856Z,2.90
2022-12-27T16:12:14.058Z,3.15
2022-12-27T16:14:46.810Z,4.53
2022-12-27T16:17:33.967Z,3.10
2022-12-27T16:20:16.946Z,3.75
2022-12-27T16:22:55.912Z,6.13
2022-12-27T16:25:36.098Z,4.20
2022-12-27T16:28:09.617Z,4.55
2022-12-27T16:30:45.663Z,4.30
2022-12-27T16:33:37.916Z,8.00
2022-12-27T16:36:18.334Z,5.13
2022-12-27T16:39:02.472Z,6.20
2022-12-27T16:42:01.350Z,5.78
2022-12-27T16:44:49.227Z,6.65
2022-12-27T16:47:41.070Z,6.80
2022-12-27T16:50:29.652Z,6.72
2022-12-27T16:53:12.112Z,7.68
2022-12-27T16:56:16.775Z,6.53
2022-12-27T17:02:02.136Z,9.75
2022-12-27T17:04:56.792Z,11.13
2022-12-27T17:07:47.207Z,16.13
2022-12-27T17:10:38.094Z,12.70
2022-12-27T17:13:18.234Z,4.15
2022-12-27T17:15:56.751Z,5.22
2022-12-27T17:18:33.156Z,2.42
2022-12-27T17:21:08.111Z,3.53
2022-12-27T17:23:45.667Z,3.85
2022-12-27T17:26:33.338Z,3.75
2022-12-27T17:29:27.744Z,4.75
2022-12-27T17:32:12.821Z,6.28
2022-12-27T17:34:54.900Z,6.00
2022-12-27T17:37:36.284Z,7.20
2022-12-27T17:40:29.196Z,7.95
2022-12-27T17:43:26.688Z,8.52
2022-12-27T17:46:15.998Z,10.18
2022-12-27T17:48:48.001Z,10.90
2022-12-27T17:51:24.112Z,10.65
2022-12-27T17:54:09.015Z,8.60
2022-12-27T17:56:59.511Z,13.38
2022-12-27T17:59:32.107Z,10.75
2022-12-27T18:02:16.095Z,11.48
2022-12-27T18:04:52.190Z,14.23
2022-12-27T18:07:29.064Z,12.55
2022-12-27T18:10:04.479Z,9.57
2022-12-27T18:15:15.839Z,11.55
2022-12-27T18:17:52.127Z,12.00
2022-12-27T18:20:41.676Z,10.18
2022-12-27T18:23:21.122Z,6.78
2022-12-27T18:26:00.507Z,8.75
2022-12-27T18:28:34.191Z,10.45
2022-12-27T18:31:11.026Z,9.18
2022-12-27T18:33:47.480Z,9.80
2022-12-27T18:36:28.386Z,8.65
2022-12-27T18:39:03.731Z,9.73
2022-12-27T18:41:40.528Z,13.48
2022-12-27T18:44:24.793Z,13.98
2022-12-27T18:47:00.888Z,12.15
2022-12-27T18:49:36.012Z,12.10
2022-12-27T18:52:16.014Z,11.82
2022-12-27T18:54:47.196Z,10.50
2022-12-27T18:57:40.476Z,11.63
2022-12-27T19:00:21.924Z,10.50
2022-12-27T19:02:53.949Z,9.40
2022-12-27T19:05:33.083Z,12.45
2022-12-27T19:08:14.179Z,21.17
2022-12-27T19:10:51.889Z,20.65
2022-12-27T19:13:26.756Z,13.30
2022-12-27T19:15:59.027Z,9.80
2022-12-27T19:18:33.333Z,15.68
2022-12-27T19:21:10.048Z,15.43
2022-12-27T19:23:49.381Z,14.10
2022-12-27T19:26:29.186Z,14.07
2022-12-27T19:29:05.024Z,14.70
2022-12-27T19:31:36.320Z,12.05
2022-12-27T19:34:19.371Z,11.00
2022-12-27T19:36:53.944Z,14.18
2022-12-27T19:39:28.235Z,17.63
2022-12-27T19:42:01.368Z,16.20
2022-12-27T19:44:32.925Z,14.10
2022-12-27T19:47:03.738Z,13.52
2022-12-27T19:49:43.393Z,10.88
2022-12-27T19:52:20.876Z,7.63
2022-12-27T19:54:53.005Z,8.10
2022-12-27T19:57:23.520Z,8.00
2022-12-27T19:59:54.226Z,7.90
2022-12-27T20:02:24.923Z,7.72
2022-12-27T20:04:55.715Z,9.25
2022-12-27T20:07:30.414Z,11.93
2022-12-27T20:10:01.137Z,13.38
2022-12-27T20:12:31.910Z,9.43
2022-12-27T20:15:02.728Z,10.52
2022-12-27T20:17:38.315Z,5.93
2022-12-27T20:20:13.573Z,7.30
2022-12-27T20:22:46.829Z,10.43
2022-12-27T20:25:17.730Z,14.20
2022-12-27T20:27:48.366Z,7.72
2022-12-27T20:30:18.997Z,8.73
2022-12-27T20:32:49.602Z,6.93
2022-12-27T20:35:20.540Z,8.35
2022-12-27T20:37:53.817Z,7.28
2022-12-27T20:40:25.404Z,3.35
2022-12-27T20:42:55.938Z,4.68
2022-12-27T20:45:27.182Z,4.40
2022-12-27T20:47:57.924Z,3.42
2022-12-27T20:50:28.733Z,3.05
2022-12-27T20:53:01.900Z,3.08
2022-12-27T20:55:33.695Z,3.55
2022-12-27T20:58:04.765Z,5.45
2022-12-27T21:00:37.439Z,4.05
2022-12-27T21:03:08.419Z,4.28
2022-12-27T21:05:40.003Z,4.55
2022-12-27T21:08:13.268Z,4.88
2022-12-27T21:10:44.328Z,4.20
2022-12-27T21:13:14.809Z,8.18
2022-12-27T21:15:49.376Z,28.70
2022-12-27T21:18:20.081Z,18.52
2022-12-27T21:20:50.773Z,5.47
2022-12-27T21:23:23.813Z,4.78
2022-12-27T21:25:54.476Z,5.18
2022-12-27T21:28:25.017Z,4.57
2022-12-27T21:30:58.839Z,6.90
2022-12-27T21:33:30.554Z,8.32
2022-12-27T21:36:02.792Z,7.53
2022-12-27T21:38:36.482Z,6.97
2022-12-27T21:41:09.319Z,8.95
2022-12-27T21:43:39.978Z,8.38
2022-12-27T21:46:18.436Z,9.30
2022-12-27T21:48:49.300Z,11.25
2022-12-27T21:51:21.586Z,6.85
2022-12-27T21:53:55.417Z,7.72
2022-12-27T21:56:27.205Z,5.53
2022-12-27T21:58:58.374Z,5.40
2022-12-27T22:01:31.263Z,5.40
2022-12-27T22:04:21.983Z,5.47
2022-12-27T22:06:52.776Z,5.50
2022-12-27T22:09:25.888Z,8.32
2022-12-27T22:11:56.573Z,8.63
2022-12-27T22:14:30.570Z,9.20
2022-12-27T22:17:04.145Z,10.43
2022-12-27T22:19:34.729Z,10.00
2022-12-27T22:22:05.457Z,7.45
2022-12-27T22:24:38.687Z,7.90
2022-12-27T22:27:09.322Z,7.00
2022-12-27T22:29:40.046Z,5.68
2022-12-27T22:32:10.917Z,7.28
2022-12-27T22:34:41.501Z,7.50
2022-12-27T22:37:12.088Z,7.25
2022-12-27T22:39:45.131Z,7.65
2022-12-27T22:42:15.753Z,7.68
2022-12-27T22:44:46.360Z,7.50
2022-12-27T22:47:32.147Z,9.35
2022-12-27T22:50:02.811Z,12.18
2022-12-27T22:52:33.987Z,13.48
2022-12-27T22:55:07.846Z,9.80
2022-12-27T22:57:38.619Z,13.60
2022-12-27T23:00:12.672Z,11.50
2022-12-27T23:02:43.366Z,9.98
2022-12-27T23:05:14.269Z,12.23
2022-12-27T23:08:05.348Z,11.05
2022-12-27T23:10:38.962Z,11.23
2022-12-27T23:13:09.644Z,11.85
2022-12-27T23:15:40.147Z,13.20
2022-12-27T23:18:11.279Z,6.72
2022-12-27T23:21:20.324Z,4.95
2022-12-27T23:23:32.298Z,4.07
2022-12-27T23:26:08.658Z,5.25
2022-12-27T23:28:39.992Z,4.80
2022-12-27T23:31:11.808Z,4.10
2022-12-27T23:33:43.509Z,3.30
2022-12-27T23:36:14.949Z,3.35
2022-12-27T23:38:46.444Z,3.65
2022-12-27T23:41:22.120Z,4.35
2022-12-27T23:43:55.452Z,4.00
2022-12-27T23:46:30.218Z,3.65
2022-12-27T23:49:02.810Z,10.70
2022-12-27T23:51:34.477Z,3.30
2022-12-27T23:54:05.159Z,6.50
2022-12-27T23:56:38.387Z,4.70
2022-12-27T23:59:10.978Z,5.05
